sensor_id;sensor_type;location;lat;lon;timestamp;temperature;humidity
64705;DHT22;51131;52.298;13.686;2022-09-14T00:00:33;21.30;75.50
64705;DHT22;51131;52.298;13.686;2022-09-14T00:03:00;21.30;75.40
64705;DHT22;51131;52.298;13.686;2022-09-14T00:05:27;21.30;75.50
64705;DHT22;51131;52.298;13.686;2022-09-14T00:07:53;21.30;75.30
64705;DHT22;51131;52.298;13.686;2022-09-14T00:10:20;21.40;75.50
64705;DHT22;51131;52.298;13.686;2022-09-14T00:12:48;21.30;75.40
64705;DHT22;51131;52.298;13.686;2022-09-14T00:15:15;21.30;75.30
64705;DHT22;51131;52.298;13.686;2022-09-14T00:17:42;21.30;75.40
64705;DHT22;51131;52.298;13.686;2022-09-14T00:20:08;21.30;75.30
64705;DHT22;51131;52.298;13.686;2022-09-14T00:22:35;21.30;75.30
64705;DHT22;51131;52.298;13.686;2022-09-14T00:25:02;21.30;75.30
64705;DHT22;51131;52.298;13.686;2022-09-14T00:27:29;21.30;75.30
64705;DHT22;51131;52.298;13.686;2022-09-14T00:29:55;21.30;75.30
64705;DHT22;51131;52.298;13.686;2022-09-14T00:32:22;21.30;75.30
64705;DHT22;51131;52.298;13.686;2022-09-14T00:34:49;21.30;75.30
64705;DHT22;51131;52.298;13.686;2022-09-14T00:37:15;21.30;75.30
64705;DHT22;51131;52.298;13.686;2022-09-14T00:39:42;21.20;75.20
64705;DHT22;51131;52.298;13.686;2022-09-14T00:42:09;21.20;75.20
64705;DHT22;51131;52.298;13.686;2022-09-14T00:47:05;21.20;75.30
64705;DHT22;51131;52.298;13.686;2022-09-14T00:49:36;21.20;75.20
64705;DHT22;51131;52.298;13.686;2022-09-14T00:52:04;21.20;75.20
64705;DHT22;51131;52.298;13.686;2022-09-14T00:54:36;21.20;75.30
64705;DHT22;51131;52.298;13.686;2022-09-14T00:57:04;21.20;75.20
64705;DHT22;51131;52.298;13.686;2022-09-14T00:59:31;21.20;76.00
64705;DHT22;51131;52.298;13.686;2022-09-14T01:02:00;21.20;75.20
64705;DHT22;51131;52.298;13.686;2022-09-14T01:04:27;21.20;75.30
64705;DHT22;51131;52.298;13.686;2022-09-14T01:17:21;21.10;75.10
64705;DHT22;51131;52.298;13.686;2022-09-14T01:22:59;21.20;75.30
64705;DHT22;51131;52.298;13.686;2022-09-14T01:25:33;21.20;75.20
64705;DHT22;51131;52.298;13.686;2022-09-14T01:28:02;21.20;75.10
64705;DHT22;51131;52.298;13.686;2022-09-14T01:30:31;21.20;75.10
64705;DHT22;51131;52.298;13.686;2022-09-14T01:33:08;21.20;75.10
64705;DHT22;51131;52.298;13.686;2022-09-14T01:35:37;21.30;75.10
64705;DHT22;51131;52.298;13.686;2022-09-14T01:38:07;21.30;75.10
64705;DHT22;51131;52.298;13.686;2022-09-14T01:40:40;21.30;75.00
64705;DHT22;51131;52.298;13.686;2022-09-14T01:45:49;21.30;75.00
64705;DHT22;51131;52.298;13.686;2022-09-14T01:48:18;21.30;75.00
64705;DHT22;51131;52.298;13.686;2022-09-14T01:50:48;21.30;75.00
64705;DHT22;51131;52.298;13.686;2022-09-14T01:53:18;21.30;74.90
64705;DHT22;51131;52.298;13.686;2022-09-14T01:55:53;21.30;74.90
64705;DHT22;51131;52.298;13.686;2022-09-14T01:58:22;21.20;74.90
64705;DHT22;51131;52.298;13.686;2022-09-14T02:00:52;21.30;74.90
64705;DHT22;51131;52.298;13.686;2022-09-14T02:03:24;21.20;74.90
64705;DHT22;51131;52.298;13.686;2022-09-14T02:08:18;21.80;75.40
64705;DHT22;51131;52.298;13.686;2022-09-14T02:10:45;21.20;74.90
64705;DHT22;51131;52.298;13.686;2022-09-14T02:13:12;21.20;74.80
64705;DHT22;51131;52.298;13.686;2022-09-14T02:15:39;21.20;74.80
64705;DHT22;51131;52.298;13.686;2022-09-14T02:18:05;21.30;74.90
64705;DHT22;51131;52.298;13.686;2022-09-14T02:20:43;21.20;74.80
64705;DHT22;51131;52.298;13.686;2022-09-14T02:23:12;21.20;74.70
64705;DHT22;51131;52.298;13.686;2022-09-14T02:25:39;21.20;74.80
64705;DHT22;51131;52.298;13.686;2022-09-14T02:28:06;21.20;74.70
64705;DHT22;51131;52.298;13.686;2022-09-14T02:30:40;21.20;74.70
64705;DHT22;51131;52.298;13.686;2022-09-14T02:33:16;21.20;74.60
64705;DHT22;51131;52.298;13.686;2022-09-14T02:36:05;21.20;74.70
64705;DHT22;51131;52.298;13.686;2022-09-14T02:38:38;21.10;74.60
64705;DHT22;51131;52.298;13.686;2022-09-14T02:41:11;21.10;74.60
64705;DHT22;51131;52.298;13.686;2022-09-14T02:43:47;21.10;74.50
64705;DHT22;51131;52.298;13.686;2022-09-14T02:46:32;22.50;75.90
64705;DHT22;51131;52.298;13.686;2022-09-14T02:54:12;21.10;74.60
64705;DHT22;51131;52.298;13.686;2022-09-14T02:56:40;21.20;74.60
64705;DHT22;51131;52.298;13.686;2022-09-14T02:59:06;21.20;74.70
64705;DHT22;51131;52.298;13.686;2022-09-14T03:01:33;21.20;74.60
64705;DHT22;51131;52.298;13.686;2022-09-14T03:04:00;21.20;74.60
64705;DHT22;51131;52.298;13.686;2022-09-14T03:06:27;21.20;74.60
64705;DHT22;51131;52.298;13.686;2022-09-14T03:08:53;21.20;74.60
64705;DHT22;51131;52.298;13.686;2022-09-14T03:11:20;21.20;74.50
64705;DHT22;51131;52.298;13.686;2022-09-14T03:13:46;21.20;74.50
64705;DHT22;51131;52.298;13.686;2022-09-14T03:16:14;21.20;75.20
64705;DHT22;51131;52.298;13.686;2022-09-14T03:18:42;21.20;74.50
64705;DHT22;51131;52.298;13.686;2022-09-14T03:21:13;21.20;74.50
64705;DHT22;51131;52.298;13.686;2022-09-14T03:23:40;21.20;74.50
64705;DHT22;51131;52.298;13.686;2022-09-14T03:26:08;21.20;75.10
64705;DHT22;51131;52.298;13.686;2022-09-14T03:28:35;21.20;74.60
64705;DHT22;51131;52.298;13.686;2022-09-14T03:31:02;21.20;74.40
64705;DHT22;51131;52.298;13.686;2022-09-14T03:33:29;21.20;74.50
64705;DHT22;51131;52.298;13.686;2022-09-14T03:35:56;21.20;74.50
64705;DHT22;51131;52.298;13.686;2022-09-14T03:38:23;21.20;74.50
64705;DHT22;51131;52.298;13.686;2022-09-14T03:40:52;21.20;74.40
64705;DHT22;51131;52.298;13.686;2022-09-14T03:43:18;21.20;74.40
64705;DHT22;51131;52.298;13.686;2022-09-14T03:45:45;21.20;74.40
64705;DHT22;51131;52.298;13.686;2022-09-14T03:48:12;21.20;74.50
64705;DHT22;51131;52.298;13.686;2022-09-14T03:50:41;21.20;74.50
64705;DHT22;51131;52.298;13.686;2022-09-14T03:53:07;21.20;74.50
64705;DHT22;51131;52.298;13.686;2022-09-14T03:55:34;21.20;74.50
64705;DHT22;51131;52.298;13.686;2022-09-14T03:58:01;21.10;74.30
64705;DHT22;51131;52.298;13.686;2022-09-14T04:00:27;21.20;74.60
64705;DHT22;51131;52.298;13.686;2022-09-14T04:02:54;21.10;74.50
64705;DHT22;51131;52.298;13.686;2022-09-14T04:05:21;21.10;74.50
64705;DHT22;51131;52.298;13.686;2022-09-14T04:07:47;21.20;74.70
64705;DHT22;51131;52.298;13.686;2022-09-14T04:10:14;21.10;74.50
64705;DHT22;51131;52.298;13.686;2022-09-14T04:12:41;21.20;74.60
64705;DHT22;51131;52.298;13.686;2022-09-14T04:15:07;21.20;74.40
64705;DHT22;51131;52.298;13.686;2022-09-14T04:17:34;21.30;74.50
64705;DHT22;51131;52.298;13.686;2022-09-14T04:20:01;21.50;74.50
64705;DHT22;51131;52.298;13.686;2022-09-14T04:22:27;21.40;74.20
64705;DHT22;51131;52.298;13.686;2022-09-14T04:24:54;21.40;74.00
64705;DHT22;51131;52.298;13.686;2022-09-14T04:27:21;21.40;73.90
64705;DHT22;51131;52.298;13.686;2022-09-14T04:29:48;21.40;73.80
64705;DHT22;51131;52.298;13.686;2022-09-14T04:32:15;21.40;73.70
64705;DHT22;51131;52.298;13.686;2022-09-14T04:34:42;21.40;73.60
64705;DHT22;51131;52.298;13.686;2022-09-14T04:37:08;21.40;73.50
64705;DHT22;51131;52.298;13.686;2022-09-14T04:39:35;21.40;73.50
64705;DHT22;51131;52.298;13.686;2022-09-14T04:42:02;21.40;73.50
64705;DHT22;51131;52.298;13.686;2022-09-14T04:44:29;21.40;73.50
64705;DHT22;51131;52.298;13.686;2022-09-14T04:46:55;21.40;73.50
64705;DHT22;51131;52.298;13.686;2022-09-14T04:49:22;21.40;73.40
64705;DHT22;51131;52.298;13.686;2022-09-14T04:51:49;21.40;73.40
64705;DHT22;51131;52.298;13.686;2022-09-14T04:54:16;21.40;73.40
64705;DHT22;51131;52.298;13.686;2022-09-14T04:56:43;21.70;74.40
64705;DHT22;51131;52.298;13.686;2022-09-14T04:59:10;21.40;73.40
64705;DHT22;51131;52.298;13.686;2022-09-14T05:01:41;21.40;73.30
64705;DHT22;51131;52.298;13.686;2022-09-14T05:04:09;21.40;73.30
64705;DHT22;51131;52.298;13.686;2022-09-14T05:06:37;21.40;73.30
64705;DHT22;51131;52.298;13.686;2022-09-14T05:09:06;21.40;73.30
64705;DHT22;51131;52.298;13.686;2022-09-14T05:11:33;21.40;73.30
64705;DHT22;51131;52.298;13.686;2022-09-14T05:14:00;21.40;73.30
64705;DHT22;51131;52.298;13.686;2022-09-14T05:16:29;21.40;73.30
64705;DHT22;51131;52.298;13.686;2022-09-14T05:18:56;21.40;73.30
64705;DHT22;51131;52.298;13.686;2022-09-14T05:21:23;21.40;73.40
64705;DHT22;51131;52.298;13.686;2022-09-14T05:23:54;21.30;73.30
64705;DHT22;51131;52.298;13.686;2022-09-14T05:26:21;21.30;73.30
64705;DHT22;51131;52.298;13.686;2022-09-14T05:28:48;21.30;73.40
64705;DHT22;51131;52.298;13.686;2022-09-14T05:31:17;21.40;73.50
64705;DHT22;51131;52.298;13.686;2022-09-14T05:33:44;21.30;73.40
64705;DHT22;51131;52.298;13.686;2022-09-14T05:36:10;21.40;73.50
64705;DHT22;51131;52.298;13.686;2022-09-14T05:38:37;21.30;74.10
64705;DHT22;51131;52.298;13.686;2022-09-14T05:41:05;21.30;73.40
64705;DHT22;51131;52.298;13.686;2022-09-14T05:43:32;21.40;73.50
64705;DHT22;51131;52.298;13.686;2022-09-14T05:46:06;21.30;73.30
64705;DHT22;51131;52.298;13.686;2022-09-14T05:48:33;21.30;73.40
64705;DHT22;51131;52.298;13.686;2022-09-14T05:51:01;21.30;73.40
64705;DHT22;51131;52.298;13.686;2022-09-14T05:53:28;21.30;73.50
64705;DHT22;51131;52.298;13.686;2022-09-14T05:56:03;21.30;73.50
64705;DHT22;51131;52.298;13.686;2022-09-14T05:58:30;21.30;73.50
64705;DHT22;51131;52.298;13.686;2022-09-14T06:00:57;21.30;73.60
64705;DHT22;51131;52.298;13.686;2022-09-14T06:03:23;21.20;73.50
64705;DHT22;51131;52.298;13.686;2022-09-14T06:05:50;21.20;73.50
64705;DHT22;51131;52.298;13.686;2022-09-14T06:08:20;21.20;73.60
64705;DHT22;51131;52.298;13.686;2022-09-14T06:10:47;21.20;73.60
64705;DHT22;51131;52.298;13.686;2022-09-14T06:13:14;21.30;73.70
64705;DHT22;51131;52.298;13.686;2022-09-14T06:15:40;21.20;73.60
64705;DHT22;51131;52.298;13.686;2022-09-14T06:18:07;21.30;73.60
64705;DHT22;51131;52.298;13.686;2022-09-14T06:20:33;21.30;73.70
64705;DHT22;51131;52.298;13.686;2022-09-14T06:23:00;21.30;73.60
64705;DHT22;51131;52.298;13.686;2022-09-14T06:25:27;21.30;73.60
64705;DHT22;51131;52.298;13.686;2022-09-14T06:27:54;21.30;73.60
64705;DHT22;51131;52.298;13.686;2022-09-14T06:30:20;21.30;73.60
64705;DHT22;51131;52.298;13.686;2022-09-14T06:32:47;21.30;73.50
64705;DHT22;51131;52.298;13.686;2022-09-14T06:35:14;21.30;73.60
64705;DHT22;51131;52.298;13.686;2022-09-14T06:37:40;21.30;73.60
64705;DHT22;51131;52.298;13.686;2022-09-14T06:40:07;21.20;73.60
64705;DHT22;51131;52.298;13.686;2022-09-14T06:42:34;21.20;73.60
64705;DHT22;51131;52.298;13.686;2022-09-14T06:45:01;21.20;73.60
64705;DHT22;51131;52.298;13.686;2022-09-14T06:47:31;21.20;73.60
64705;DHT22;51131;52.298;13.686;2022-09-14T06:49:58;21.20;73.70
64705;DHT22;51131;52.298;13.686;2022-09-14T06:52:24;21.20;73.70
64705;DHT22;51131;52.298;13.686;2022-09-14T06:54:55;21.20;73.70
64705;DHT22;51131;52.298;13.686;2022-09-14T06:57:22;21.60;74.10
64705;DHT22;51131;52.298;13.686;2022-09-14T06:59:49;21.20;73.80
64705;DHT22;51131;52.298;13.686;2022-09-14T07:02:15;21.20;73.70
64705;DHT22;51131;52.298;13.686;2022-09-14T07:04:42;21.20;73.80
64705;DHT22;51131;52.298;13.686;2022-09-14T07:07:09;21.20;73.80
64705;DHT22;51131;52.298;13.686;2022-09-14T07:09:36;21.20;73.80
64705;DHT22;51131;52.298;13.686;2022-09-14T07:12:03;21.20;73.80
64705;DHT22;51131;52.298;13.686;2022-09-14T07:14:29;21.20;73.70
64705;DHT22;51131;52.298;13.686;2022-09-14T07:16:57;21.30;73.70
64705;DHT22;51131;52.298;13.686;2022-09-14T07:19:24;21.30;73.60
64705;DHT22;51131;52.298;13.686;2022-09-14T07:21:51;21.30;73.60
64705;DHT22;51131;52.298;13.686;2022-09-14T07:24:20;21.30;73.50
64705;DHT22;51131;52.298;13.686;2022-09-14T07:26:47;21.30;73.50
64705;DHT22;51131;52.298;13.686;2022-09-14T07:29:15;21.20;73.30
64705;DHT22;51131;52.298;13.686;2022-09-14T07:31:45;21.40;73.50
64705;DHT22;51131;52.298;13.686;2022-09-14T07:34:13;21.30;73.40
64705;DHT22;51131;52.298;13.686;2022-09-14T07:36:41;21.30;73.40
64705;DHT22;51131;52.298;13.686;2022-09-14T07:39:09;21.30;73.40
64705;DHT22;51131;52.298;13.686;2022-09-14T07:41:36;21.30;73.40
64705;DHT22;51131;52.298;13.686;2022-09-14T07:44:04;21.30;73.40
64705;DHT22;51131;52.298;13.686;2022-09-14T07:46:35;21.30;73.40
64705;DHT22;51131;52.298;13.686;2022-09-14T07:49:04;21.30;73.40
64705;DHT22;51131;52.298;13.686;2022-09-14T07:51:31;21.40;73.50
64705;DHT22;51131;52.298;13.686;2022-09-14T07:53:58;21.30;73.40
64705;DHT22;51131;52.298;13.686;2022-09-14T07:56:27;21.30;73.50
64705;DHT22;51131;52.298;13.686;2022-09-14T07:58:56;21.30;73.40
64705;DHT22;51131;52.298;13.686;2022-09-14T08:01:42;21.30;73.40
64705;DHT22;51131;52.298;13.686;2022-09-14T08:04:09;21.30;73.50
64705;DHT22;51131;52.298;13.686;2022-09-14T08:06:36;21.30;73.50
64705;DHT22;51131;52.298;13.686;2022-09-14T08:09:04;21.30;73.50
64705;DHT22;51131;52.298;13.686;2022-09-14T08:11:31;21.30;73.50
64705;DHT22;51131;52.298;13.686;2022-09-14T08:14:01;21.30;73.60
64705;DHT22;51131;52.298;13.686;2022-09-14T08:16:29;21.30;73.70
64705;DHT22;51131;52.298;13.686;2022-09-14T08:18:57;21.30;73.70
64705;DHT22;51131;52.298;13.686;2022-09-14T08:21:25;21.30;73.70
64705;DHT22;51131;52.298;13.686;2022-09-14T08:23:52;21.30;73.70
64705;DHT22;51131;52.298;13.686;2022-09-14T08:26:23;21.20;73.70
64705;DHT22;51131;52.298;13.686;2022-09-14T08:28:50;21.30;73.80
64705;DHT22;51131;52.298;13.686;2022-09-14T08:31:20;21.30;73.80
64705;DHT22;51131;52.298;13.686;2022-09-14T08:33:49;21.20;73.70
64705;DHT22;51131;52.298;13.686;2022-09-14T08:36:17;21.30;73.80
64705;DHT22;51131;52.298;13.686;2022-09-14T08:38:44;21.20;73.80
64705;DHT22;51131;52.298;13.686;2022-09-14T08:41:15;21.20;73.80
64705;DHT22;51131;52.298;13.686;2022-09-14T08:43:43;21.20;73.90
64705;DHT22;51131;52.298;13.686;2022-09-14T08:46:24;21.20;73.90
64705;DHT22;51131;52.298;13.686;2022-09-14T08:48:52;21.20;73.90
64705;DHT22;51131;52.298;13.686;2022-09-14T08:51:19;21.20;74.00
64705;DHT22;51131;52.298;13.686;2022-09-14T08:53:46;21.20;74.10
64705;DHT22;51131;52.298;13.686;2022-09-14T08:56:14;21.20;74.10
64705;DHT22;51131;52.298;13.686;2022-09-14T08:58:53;21.30;74.20
64705;DHT22;51131;52.298;13.686;2022-09-14T09:09:20;21.30;74.10
64705;DHT22;51131;52.298;13.686;2022-09-14T09:11:49;21.30;74.00
64705;DHT22;51131;52.298;13.686;2022-09-14T09:16:50;21.40;73.80
64705;DHT22;51131;52.298;13.686;2022-09-14T09:19:20;21.40;73.60
64705;DHT22;51131;52.298;13.686;2022-09-14T09:21:54;21.50;73.60
64705;DHT22;51131;52.298;13.686;2022-09-14T09:24:35;21.50;73.50
64705;DHT22;51131;52.298;13.686;2022-09-14T09:27:12;21.50;73.40
64705;DHT22;51131;52.298;13.686;2022-09-14T09:29:41;21.50;73.40
64705;DHT22;51131;52.298;13.686;2022-09-14T09:32:25;21.50;73.40
64705;DHT22;51131;52.298;13.686;2022-09-14T09:34:52;21.50;73.40
64705;DHT22;51131;52.298;13.686;2022-09-14T09:37:20;21.50;73.30
64705;DHT22;51131;52.298;13.686;2022-09-14T09:39:47;21.50;73.20
64705;DHT22;51131;52.298;13.686;2022-09-14T09:42:19;21.50;73.10
64705;DHT22;51131;52.298;13.686;2022-09-14T09:44:59;21.50;73.20
64705;DHT22;51131;52.298;13.686;2022-09-14T09:47:36;21.50;73.30
64705;DHT22;51131;52.298;13.686;2022-09-14T09:50:05;21.50;73.30
64705;DHT22;51131;52.298;13.686;2022-09-14T09:52:32;21.50;73.20
64705;DHT22;51131;52.298;13.686;2022-09-14T09:55:00;21.50;73.30
64705;DHT22;51131;52.298;13.686;2022-09-14T09:57:32;21.50;73.30
64705;DHT22;51131;52.298;13.686;2022-09-14T10:02:43;21.50;73.30
64705;DHT22;51131;52.298;13.686;2022-09-14T10:10:16;21.50;73.30
64705;DHT22;51131;52.298;13.686;2022-09-14T10:12:53;21.50;73.30
64705;DHT22;51131;52.298;13.686;2022-09-14T10:15:21;21.50;73.30
64705;DHT22;51131;52.298;13.686;2022-09-14T10:17:52;21.50;73.30
64705;DHT22;51131;52.298;13.686;2022-09-14T10:20:20;21.50;73.40
64705;DHT22;51131;52.298;13.686;2022-09-14T10:22:47;21.50;73.40
64705;DHT22;51131;52.298;13.686;2022-09-14T10:27:44;21.50;73.50
64705;DHT22;51131;52.298;13.686;2022-09-14T10:30:12;21.50;73.50
64705;DHT22;51131;52.298;13.686;2022-09-14T10:32:40;21.50;73.50
64705;DHT22;51131;52.298;13.686;2022-09-14T10:35:12;21.40;73.30
64705;DHT22;51131;52.298;13.686;2022-09-14T10:40:35;21.40;73.30
64705;DHT22;51131;52.298;13.686;2022-09-14T10:43:11;21.40;73.50
64705;DHT22;51131;52.298;13.686;2022-09-14T10:45:40;21.40;73.30
64705;DHT22;51131;52.298;13.686;2022-09-14T10:53:31;21.40;73.20
64705;DHT22;51131;52.298;13.686;2022-09-14T11:12:38;21.30;73.20
64705;DHT22;51131;52.298;13.686;2022-09-14T11:15:28;21.30;73.20
64705;DHT22;51131;52.298;13.686;2022-09-14T11:18:04;21.30;73.30
64705;DHT22;51131;52.298;13.686;2022-09-14T11:23:25;21.30;73.40
64705;DHT22;51131;52.298;13.686;2022-09-14T11:26:31;21.30;73.30
64705;DHT22;51131;52.298;13.686;2022-09-14T11:28:52;21.30;73.40
64705;DHT22;51131;52.298;13.686;2022-09-14T11:33:51;21.30;73.50
64705;DHT22;51131;52.298;13.686;2022-09-14T11:38:58;21.30;73.50
64705;DHT22;51131;52.298;13.686;2022-09-14T11:46:41;21.30;73.60
64705;DHT22;51131;52.298;13.686;2022-09-14T11:51:57;21.20;73.50
64705;DHT22;51131;52.298;13.686;2022-09-14T11:54:27;21.20;73.50
64705;DHT22;51131;52.298;13.686;2022-09-14T11:56:55;21.20;73.40
64705;DHT22;51131;52.298;13.686;2022-09-14T11:59:35;21.20;73.40
64705;DHT22;51131;52.298;13.686;2022-09-14T12:12:45;21.30;73.00
64705;DHT22;51131;52.298;13.686;2022-09-14T12:15:20;21.40;73.10
64705;DHT22;51131;52.298;13.686;2022-09-14T12:17:49;21.40;73.00
64705;DHT22;51131;52.298;13.686;2022-09-14T12:25:31;21.40;72.90
64705;DHT22;51131;52.298;13.686;2022-09-14T12:27:59;21.40;72.90
64705;DHT22;51131;52.298;13.686;2022-09-14T12:35:53;21.40;72.90
64705;DHT22;51131;52.298;13.686;2022-09-14T12:40:56;21.40;72.90
64705;DHT22;51131;52.298;13.686;2022-09-14T12:46:00;21.40;72.90
64705;DHT22;51131;52.298;13.686;2022-09-14T12:54:02;21.40;72.80
64705;DHT22;51131;52.298;13.686;2022-09-14T13:04:32;21.40;72.90
64705;DHT22;51131;52.298;13.686;2022-09-14T13:07:00;21.40;72.90
64705;DHT22;51131;52.298;13.686;2022-09-14T13:09:28;21.40;72.90
64705;DHT22;51131;52.298;13.686;2022-09-14T13:12:02;21.40;72.90
64705;DHT22;51131;52.298;13.686;2022-09-14T13:14:46;21.40;73.00
64705;DHT22;51131;52.298;13.686;2022-09-14T13:17:14;21.40;72.10
64705;DHT22;51131;52.298;13.686;2022-09-14T13:19:41;21.30;72.40
64705;DHT22;51131;52.298;13.686;2022-09-14T13:22:18;21.30;72.50
64705;DHT22;51131;52.298;13.686;2022-09-14T13:24:46;21.30;72.50
64705;DHT22;51131;52.298;13.686;2022-09-14T13:27:28;21.30;72.70
64705;DHT22;51131;52.298;13.686;2022-09-14T13:30:38;21.30;72.70
64705;DHT22;51131;52.298;13.686;2022-09-14T13:32:48;21.30;72.90
64705;DHT22;51131;52.298;13.686;2022-09-14T13:35:15;21.30;72.90
64705;DHT22;51131;52.298;13.686;2022-09-14T13:37:43;21.30;72.90
64705;DHT22;51131;52.298;13.686;2022-09-14T13:40:13;21.40;73.70
64705;DHT22;51131;52.298;13.686;2022-09-14T13:42:40;21.30;73.00
64705;DHT22;51131;52.298;13.686;2022-09-14T13:45:08;21.20;72.90
64705;DHT22;51131;52.298;13.686;2022-09-14T13:47:36;21.30;73.10
64705;DHT22;51131;52.298;13.686;2022-09-14T13:50:04;21.30;73.10
64705;DHT22;51131;52.298;13.686;2022-09-14T13:52:35;21.30;73.20
64705;DHT22;51131;52.298;13.686;2022-09-14T14:00:54;21.20;73.10
64705;DHT22;51131;52.298;13.686;2022-09-14T14:03:38;21.30;73.30
64705;DHT22;51131;52.298;13.686;2022-09-14T14:06:16;21.30;73.30
64705;DHT22;51131;52.298;13.686;2022-09-14T14:09:07;21.20;73.30
64705;DHT22;51131;52.298;13.686;2022-09-14T14:14:12;21.20;73.40
64705;DHT22;51131;52.298;13.686;2022-09-14T14:19:29;21.20;73.50
64705;DHT22;51131;52.298;13.686;2022-09-14T14:24:41;21.20;73.50
64705;DHT22;51131;52.298;13.686;2022-09-14T14:27:30;21.20;73.50
64705;DHT22;51131;52.298;13.686;2022-09-14T14:29:58;21.20;73.60
64705;DHT22;51131;52.298;13.686;2022-09-14T14:32:25;21.20;73.60
64705;DHT22;51131;52.298;13.686;2022-09-14T14:34:52;21.20;73.30
64705;DHT22;51131;52.298;13.686;2022-09-14T14:37:19;21.20;73.40
64705;DHT22;51131;52.298;13.686;2022-09-14T14:39:46;21.20;73.30
64705;DHT22;51131;52.298;13.686;2022-09-14T14:42:15;21.20;73.30
64705;DHT22;51131;52.298;13.686;2022-09-14T14:44:42;21.30;73.20
64705;DHT22;51131;52.298;13.686;2022-09-14T14:47:11;21.30;73.10
64705;DHT22;51131;52.298;13.686;2022-09-14T14:49:37;21.30;73.10
64705;DHT22;51131;52.298;13.686;2022-09-14T14:52:04;21.40;73.10
64705;DHT22;51131;52.298;13.686;2022-09-14T14:54:32;21.30;73.00
64705;DHT22;51131;52.298;13.686;2022-09-14T14:56:58;23.30;75.00
64705;DHT22;51131;52.298;13.686;2022-09-14T14:59:26;21.40;73.10
64705;DHT22;51131;52.298;13.686;2022-09-14T15:01:53;21.40;73.10
64705;DHT22;51131;52.298;13.686;2022-09-14T15:04:20;21.30;72.90
64705;DHT22;51131;52.298;13.686;2022-09-14T15:06:47;21.30;72.90
64705;DHT22;51131;52.298;13.686;2022-09-14T15:09:16;21.40;72.90
64705;DHT22;51131;52.298;13.686;2022-09-14T15:11:43;21.30;72.80
64705;DHT22;51131;52.298;13.686;2022-09-14T15:14:11;21.30;72.90
64705;DHT22;51131;52.298;13.686;2022-09-14T15:16:38;21.30;72.90
64705;DHT22;51131;52.298;13.686;2022-09-14T15:19:05;21.30;72.80
64705;DHT22;51131;52.298;13.686;2022-09-14T15:21:32;21.30;72.90
64705;DHT22;51131;52.298;13.686;2022-09-14T15:23:58;21.40;72.90
64705;DHT22;51131;52.298;13.686;2022-09-14T15:26:25;21.90;73.40
64705;DHT22;51131;52.298;13.686;2022-09-14T15:28:52;21.40;73.00
64705;DHT22;51131;52.298;13.686;2022-09-14T15:31:19;21.30;72.90
64705;DHT22;51131;52.298;13.686;2022-09-14T15:33:46;21.40;73.10
64705;DHT22;51131;52.298;13.686;2022-09-14T15:36:12;21.30;72.70
64705;DHT22;51131;52.298;13.686;2022-09-14T15:38:39;21.40;73.00
64705;DHT22;51131;52.298;13.686;2022-09-14T15:41:09;21.20;72.80
64705;DHT22;51131;52.298;13.686;2022-09-14T15:43:36;21.40;73.00
64705;DHT22;51131;52.298;13.686;2022-09-14T15:46:02;21.30;73.00
64705;DHT22;51131;52.298;13.686;2022-09-14T15:48:29;21.30;73.70
64705;DHT22;51131;52.298;13.686;2022-09-14T15:50:56;21.30;73.10
64705;DHT22;51131;52.298;13.686;2022-09-14T15:53:26;21.30;73.10
64705;DHT22;51131;52.298;13.686;2022-09-14T15:55:52;21.30;73.20
64705;DHT22;51131;52.298;13.686;2022-09-14T15:58:19;21.30;73.20
64705;DHT22;51131;52.298;13.686;2022-09-14T16:00:46;22.30;74.10
64705;DHT22;51131;52.298;13.686;2022-09-14T16:03:12;21.30;73.20
64705;DHT22;51131;52.298;13.686;2022-09-14T16:05:39;21.30;73.20
64705;DHT22;51131;52.298;13.686;2022-09-14T16:08:06;21.30;73.30
64705;DHT22;51131;52.298;13.686;2022-09-14T16:10:33;21.30;73.30
64705;DHT22;51131;52.298;13.686;2022-09-14T16:13:00;21.30;73.30
64705;DHT22;51131;52.298;13.686;2022-09-14T16:15:26;21.30;73.40
64705;DHT22;51131;52.298;13.686;2022-09-14T16:17:53;21.30;73.40
64705;DHT22;51131;52.298;13.686;2022-09-14T16:20:20;21.20;73.40
64705;DHT22;51131;52.298;13.686;2022-09-14T16:22:48;21.20;73.40
64705;DHT22;51131;52.298;13.686;2022-09-14T16:25:15;20.70;72.90
64705;DHT22;51131;52.298;13.686;2022-09-14T16:27:42;21.20;73.40
64705;DHT22;51131;52.298;13.686;2022-09-14T16:30:08;21.20;73.60
64705;DHT22;51131;52.298;13.686;2022-09-14T16:32:35;21.20;73.50
64705;DHT22;51131;52.298;13.686;2022-09-14T16:35:02;21.20;73.60
64705;DHT22;51131;52.298;13.686;2022-09-14T16:37:33;21.20;73.60
64705;DHT22;51131;52.298;13.686;2022-09-14T16:40:00;21.20;73.60
64705;DHT22;51131;52.298;13.686;2022-09-14T16:42:27;21.20;73.70
64705;DHT22;51131;52.298;13.686;2022-09-14T16:44:54;21.20;73.70
64705;DHT22;51131;52.298;13.686;2022-09-14T16:47:20;21.20;73.70
64705;DHT22;51131;52.298;13.686;2022-09-14T16:49:47;21.20;73.70
64705;DHT22;51131;52.298;13.686;2022-09-14T16:52:14;21.10;73.70
64705;DHT22;51131;52.298;13.686;2022-09-14T16:54:40;21.10;73.70
64705;DHT22;51131;52.298;13.686;2022-09-14T16:57:07;21.10;73.70
64705;DHT22;51131;52.298;13.686;2022-09-14T16:59:34;21.10;73.70
64705;DHT22;51131;52.298;13.686;2022-09-14T17:02:01;21.40;73.90
64705;DHT22;51131;52.298;13.686;2022-09-14T17:04:28;21.20;73.70
64705;DHT22;51131;52.298;13.686;2022-09-14T17:06:55;21.20;73.70
64705;DHT22;51131;52.298;13.686;2022-09-14T17:09:23;21.20;73.70
64705;DHT22;51131;52.298;13.686;2022-09-14T17:11:50;21.20;73.70
64705;DHT22;51131;52.298;13.686;2022-09-14T17:14:18;21.20;73.70
64705;DHT22;51131;52.298;13.686;2022-09-14T17:16:45;21.30;73.70
64705;DHT22;51131;52.298;13.686;2022-09-14T17:19:13;21.30;73.60
64705;DHT22;51131;52.298;13.686;2022-09-14T17:21:40;21.30;73.50
64705;DHT22;51131;52.298;13.686;2022-09-14T17:24:08;21.30;74.10
64705;DHT22;51131;52.298;13.686;2022-09-14T17:26:35;21.30;73.40
64705;DHT22;51131;52.298;13.686;2022-09-14T17:29:02;21.40;73.50
64705;DHT22;51131;52.298;13.686;2022-09-14T17:31:31;21.40;73.40
64705;DHT22;51131;52.298;13.686;2022-09-14T17:33:58;21.40;73.30
64705;DHT22;51131;52.298;13.686;2022-09-14T17:36:26;21.50;73.40
64705;DHT22;51131;52.298;13.686;2022-09-14T17:38:54;21.50;73.10
64705;DHT22;51131;52.298;13.686;2022-09-14T17:41:22;21.50;73.00
64705;DHT22;51131;52.298;13.686;2022-09-14T17:43:49;21.60;72.90
64705;DHT22;51131;52.298;13.686;2022-09-14T17:46:17;21.60;72.80